Time;durP1;ratioP1;P1;durP2;ratioP2;P2;SDS_P1;SDS_P2;PMS_P1;PMS_P2;Temp;Humidity;BMP_temperature;BMP_pressure;BME280_temperature;BME280_humidity;BME280_pressure;Samples;Min_cycle;Max_cycle;Signal;HPM_P1;HPM_P2
2021/04/08 00:01:50;;;;;;;7.35;4.47;;;;;;;;;;5035907;28;20040;-45
2021/04/08 00:04:16;;;;;;;8.07;4.25;;;;;;;;;;5035695;28;20029;-45
2021/04/08 00:06:42;;;;;;;9.63;4.72;;;;;;;;;;5035999;28;20029;-46
2021/04/08 00:09:08;;;;;;;6.65;4.30;;;;;;;;;;5036011;28;20025;-46
2021/04/08 00:11:34;;;;;;;7.63;4.32;;;;;;;;;;5035270;28;20029;-45
2021/04/08 00:14:01;;;;;;;7.22;4.07;;;;;;;;;;5035280;28;20041;-46
2021/04/08 00:16:27;;;;;;;7.88;4.68;;;;;;;;;;5035729;28;20129;-46
2021/04/08 00:18:53;;;;;;;7.95;4.68;;;;;;;;;;5035636;28;20644;-46
2021/04/08 00:21:19;;;;;;;8.48;4.50;;;;;;;;;;5035784;28;20040;-47
2021/04/08 00:23:45;;;;;;;8.10;4.90;;;;;;;;;;5035369;28;20032;-47
2021/04/08 00:26:11;;;;;;;7.75;4.68;;;;;;;;;;5035397;28;20087;-46
2021/04/08 00:28:37;;;;;;;7.82;4.50;;;;;;;;;;5035141;28;20034;-47
2021/04/08 00:31:03;;;;;;;8.25;4.95;;;;;;;;;;5035056;28;20041;-47
2021/04/08 00:33:29;;;;;;;12.65;5.30;;;;;;;;;;5035506;28;20029;-47
2021/04/08 00:35:55;;;;;;;9.60;5.20;;;;;;;;;;5035127;28;20052;-47
2021/04/08 00:38:21;;;;;;;11.13;5.30;;;;;;;;;;5035551;28;20029;-46
2021/04/08 00:40:48;;;;;;;8.85;4.80;;;;;;;;;;5034705;28;20071;-45
2021/04/08 00:43:14;;;;;;;8.15;4.65;;;;;;;;;;5035004;28;20025;-46
2021/04/08 00:45:40;;;;;;;9.45;4.97;;;;;;;;;;5034044;28;20025;-47
2021/04/08 00:48:06;;;;;;;7.88;4.85;;;;;;;;;;5034930;28;20041;-45
2021/04/08 00:50:32;;;;;;;10.95;4.50;;;;;;;;;;5034931;28;20103;-46
2021/04/08 00:53:00;;;;;;;10.32;5.63;;;;;;;;;;5035160;28;20027;-47
2021/04/08 00:55:28;;;;;;;9.88;4.88;;;;;;;;;;5034865;28;20034;-46
2021/04/08 00:57:55;;;;;;;7.95;4.30;;;;;;;;;;5035026;28;20025;-46
2021/04/08 01:00:23;;;;;;;7.50;4.47;;;;;;;;;;5034821;28;20026;-46
2021/04/08 01:02:49;;;;;;;8.43;4.45;;;;;;;;;;5034945;28;20029;-51
2021/04/08 01:05:15;;;;;;;8.15;5.00;;;;;;;;;;5034809;28;20029;-46
2021/04/08 01:07:41;;;;;;;8.27;4.75;;;;;;;;;;5034555;28;20469;-46
2021/04/08 01:10:08;;;;;;;12.93;5.82;;;;;;;;;;5034198;28;20042;-47
2021/04/08 01:12:35;;;;;;;13.05;6.07;;;;;;;;;;5034594;28;20436;-48
2021/04/08 01:15:02;;;;;;;9.35;5.22;;;;;;;;;;5034340;28;20140;-45
2021/04/08 01:17:38;;;;;;;10.00;4.70;;;;;;;;;;5034638;28;20100;-47
2021/04/08 01:20:23;;;;;;;9.77;5.28;;;;;;;;;;5034342;28;20037;-45
2021/04/08 01:22:58;;;;;;;10.55;5.10;;;;;;;;;;5034159;28;20030;-47
2021/04/08 01:25:44;;;;;;;8.15;4.78;;;;;;;;;;5034404;28;20480;-46
2021/04/08 01:28:16;;;;;;;11.02;5.32;;;;;;;;;;5033984;28;20087;-46
2021/04/08 01:30:42;;;;;;;8.15;4.35;;;;;;;;;;5033907;28;20037;-45
2021/04/08 01:33:16;;;;;;;7.70;4.50;;;;;;;;;;5034378;28;20017;-46
2021/04/08 01:35:42;;;;;;;7.13;4.30;;;;;;;;;;5033979;28;20087;-45
2021/04/08 01:38:11;;;;;;;7.53;4.40;;;;;;;;;;5033953;28;20061;-45
2021/04/08 01:40:38;;;;;;;7.55;3.88;;;;;;;;;;5034042;28;20026;-46
2021/04/08 01:43:05;;;;;;;6.72;3.95;;;;;;;;;;5033964;28;20022;-46
2021/04/08 01:48:07;;;;;;;6.88;4.45;;;;;;;;;;5100662;23;20145;-46
2021/04/08 01:50:34;;;;;;;9.40;4.78;;;;;;;;;;5013390;28;20045;-45
2021/04/08 01:53:02;;;;;;;7.05;4.50;;;;;;;;;;5013212;28;20037;-45
2021/04/08 01:55:29;;;;;;;8.73;4.75;;;;;;;;;;5012711;28;20100;-48
2021/04/08 01:57:56;;;;;;;7.75;4.43;;;;;;;;;;5013164;28;20276;-46
2021/04/08 02:00:23;;;;;;;8.05;4.57;;;;;;;;;;5013126;28;20026;-46
2021/04/08 02:02:51;;;;;;;8.60;4.55;;;;;;;;;;5012807;28;20120;-46
2021/04/08 02:05:18;;;;;;;7.47;4.68;;;;;;;;;;5013215;28;20088;-45
2021/04/08 02:07:46;;;;;;;8.02;4.78;;;;;;;;;;5013107;28;20085;-45
2021/04/08 02:10:16;;;;;;;9.30;5.38;;;;;;;;;;5012974;28;20068;-45
2021/04/08 02:12:45;;;;;;;8.40;5.22;;;;;;;;;;5013232;28;20029;-45
2021/04/08 02:15:12;;;;;;;9.50;4.75;;;;;;;;;;5012795;28;20109;-45
2021/04/08 02:17:39;;;;;;;8.18;5.30;;;;;;;;;;5012600;28;20052;-49
2021/04/08 02:20:10;;;;;;;8.68;4.45;;;;;;;;;;5012939;28;20034;-47
2021/04/08 02:22:38;;;;;;;12.30;5.78;;;;;;;;;;5012701;28;20033;-47
2021/04/08 02:25:06;;;;;;;11.57;5.93;;;;;;;;;;5012675;28;20030;-46
2021/04/08 02:27:34;;;;;;;18.92;7.85;;;;;;;;;;5012645;28;20424;-45
2021/04/08 02:30:00;;;;;;;24.08;10.20;;;;;;;;;;5012648;28;20388;-45
2021/04/08 02:32:27;;;;;;;20.98;8.95;;;;;;;;;;5012339;28;20080;-45
2021/04/08 02:34:53;;;;;;;24.00;9.13;;;;;;;;;;5012698;28;20037;-45
2021/04/08 02:37:19;;;;;;;22.08;9.23;;;;;;;;;;5012366;28;20065;-47
2021/04/08 02:39:45;;;;;;;18.23;8.98;;;;;;;;;;5012507;28;20140;-46
2021/04/08 02:42:11;;;;;;;25.92;9.45;;;;;;;;;;5012351;28;20033;-46
2021/04/08 02:44:37;;;;;;;21.55;8.82;;;;;;;;;;5012306;28;20025;-46
2021/04/08 02:47:03;;;;;;;14.65;7.85;;;;;;;;;;5012086;28;20520;-46
2021/04/08 02:49:29;;;;;;;15.80;7.43;;;;;;;;;;5011982;28;20072;-48
2021/04/08 02:52:01;;;;;;;14.93;6.70;;;;;;;;;;5012262;28;20042;-45
2021/04/08 02:54:42;;;;;;;15.13;7.28;;;;;;;;;;5012181;28;20042;-45
2021/04/08 02:57:12;;;;;;;10.48;5.60;;;;;;;;;;5012152;28;20093;-45
2021/04/08 02:59:47;;;;;;;12.95;6.43;;;;;;;;;;5012154;28;20030;-45
2021/04/08 03:02:15;;;;;;;12.52;5.40;;;;;;;;;;5012066;28;20108;-45
2021/04/08 03:04:48;;;;;;;12.68;5.47;;;;;;;;;;5011866;28;20029;-46
2021/04/08 03:07:17;;;;;;;9.93;5.35;;;;;;;;;;5011272;28;20038;-46
2021/04/08 03:09:43;;;;;;;11.20;5.90;;;;;;;;;;5011839;28;20037;-45
2021/04/08 03:12:10;;;;;;;8.02;4.70;;;;;;;;;;5011925;28;20026;-46
2021/04/08 03:14:48;;;;;;;11.43;5.85;;;;;;;;;;5011869;28;20029;-48
2021/04/08 03:17:16;;;;;;;8.35;5.28;;;;;;;;;;5011918;28;20068;-45
2021/04/08 03:19:43;;;;;;;10.63;5.40;;;;;;;;;;5011848;28;20432;-46
2021/04/08 03:22:10;;;;;;;8.90;4.90;;;;;;;;;;5012003;28;20033;-44
2021/04/08 03:24:37;;;;;;;8.98;4.90;;;;;;;;;;5011721;28;20026;-46
2021/04/08 03:27:04;;;;;;;10.38;4.80;;;;;;;;;;5011745;28;20029;-45
2021/04/08 03:29:30;;;;;;;8.82;5.10;;;;;;;;;;5011730;28;20354;-45
2021/04/08 03:31:57;;;;;;;9.27;5.40;;;;;;;;;;5011766;28;20080;-45
2021/04/08 03:34:23;;;;;;;9.70;5.10;;;;;;;;;;5011510;28;20481;-46
2021/04/08 03:36:50;;;;;;;9.13;5.00;;;;;;;;;;5011862;28;20588;-46
2021/04/08 03:39:16;;;;;;;9.90;5.40;;;;;;;;;;5011719;28;20053;-45
2021/04/08 03:41:43;;;;;;;10.00;4.93;;;;;;;;;;5011661;28;20454;-46
2021/04/08 03:44:12;;;;;;;11.05;5.65;;;;;;;;;;5011646;28;20492;-44
2021/04/08 03:46:39;;;;;;;10.80;5.13;;;;;;;;;;5011425;28;20046;-51
2021/04/08 03:49:09;;;;;;;8.10;5.30;;;;;;;;;;5011404;28;20469;-47
2021/04/08 03:51:35;;;;;;;9.57;5.50;;;;;;;;;;5011525;28;20488;-45
2021/04/08 03:54:05;;;;;;;11.82;5.63;;;;;;;;;;5011490;28;20030;-45
2021/04/08 03:56:31;;;;;;;10.35;5.90;;;;;;;;;;5011530;28;20018;-46
2021/04/08 03:58:58;;;;;;;9.73;5.53;;;;;;;;;;5011425;28;20030;-48
2021/04/08 04:01:24;;;;;;;9.13;5.20;;;;;;;;;;5011440;28;20603;-47
2021/04/08 04:03:51;;;;;;;8.80;5.10;;;;;;;;;;5011447;28;20060;-46
2021/04/08 04:06:17;;;;;;;11.80;5.63;;;;;;;;;;5011466;28;20145;-45
2021/04/08 04:08:43;;;;;;;13.68;6.47;;;;;;;;;;5011394;28;20026;-47
2021/04/08 04:11:12;;;;;;;14.48;6.63;;;;;;;;;;5011519;28;20036;-46
2021/04/08 04:13:40;;;;;;;13.00;6.38;;;;;;;;;;5011317;28;20061;-56
2021/04/08 04:16:07;;;;;;;12.18;5.80;;;;;;;;;;5011243;28;20026;-47
2021/04/08 04:18:34;;;;;;;10.75;5.95;;;;;;;;;;5012072;28;20065;-43
2021/04/08 04:21:00;;;;;;;11.32;5.85;;;;;;;;;;5014992;28;20076;-47
2021/04/08 04:23:26;;;;;;;10.60;6.05;;;;;;;;;;5014850;28;20026;-51
2021/04/08 04:25:53;;;;;;;14.63;6.43;;;;;;;;;;5014994;28;20049;-45
2021/04/08 04:28:19;;;;;;;11.50;6.10;;;;;;;;;;5014819;28;20492;-45
2021/04/08 04:30:45;;;;;;;11.23;5.60;;;;;;;;;;5014730;28;20045;-46
2021/04/08 04:33:11;;;;;;;13.20;6.22;;;;;;;;;;5014900;28;20485;-45
2021/04/08 04:35:37;;;;;;;13.30;6.47;;;;;;;;;;5014718;28;20022;-45
2021/04/08 04:38:03;;;;;;;13.32;5.82;;;;;;;;;;5014610;28;20025;-45
2021/04/08 04:40:29;;;;;;;14.55;7.65;;;;;;;;;;5014781;28;20477;-47
2021/04/08 04:42:55;;;;;;;17.00;7.50;;;;;;;;;;5014607;28;20050;-44
2021/04/08 04:45:21;;;;;;;12.75;6.72;;;;;;;;;;5014638;28;20087;-45
2021/04/08 04:47:48;;;;;;;11.18;5.90;;;;;;;;;;5014196;28;20135;-45
2021/04/08 04:50:14;;;;;;;11.57;6.28;;;;;;;;;;5014150;28;20046;-45
2021/04/08 04:52:41;;;;;;;11.52;6.97;;;;;;;;;;5014238;28;20064;-45
2021/04/08 04:55:07;;;;;;;10.70;5.93;;;;;;;;;;5014222;28;20022;-45
2021/04/08 04:57:33;;;;;;;17.38;8.43;;;;;;;;;;5014273;28;20034;-44
2021/04/08 05:00:00;;;;;;;15.70;7.63;;;;;;;;;;5014224;28;20026;-51
2021/04/08 05:02:26;;;;;;;14.85;8.35;;;;;;;;;;5014283;28;20056;-47
2021/04/08 05:04:52;;;;;;;15.40;8.10;;;;;;;;;;5013959;28;20030;-50
2021/04/08 05:07:18;;;;;;;15.73;6.57;;;;;;;;;;5014066;28;20404;-46
2021/04/08 05:09:44;;;;;;;13.98;8.55;;;;;;;;;;5013855;28;20026;-47
2021/04/08 05:12:10;;;;;;;15.88;8.50;;;;;;;;;;5013990;28;20033;-45
2021/04/08 05:14:37;;;;;;;13.02;7.72;;;;;;;;;;5013862;28;20041;-45
2021/04/08 05:17:03;;;;;;;11.65;7.60;;;;;;;;;;5013916;28;20481;-46
2021/04/08 05:19:30;;;;;;;12.52;6.57;;;;;;;;;;5013872;28;20026;-45
2021/04/08 05:21:57;;;;;;;12.77;7.32;;;;;;;;;;5013613;28;20477;-48
2021/04/08 05:24:23;;;;;;;15.15;7.30;;;;;;;;;;5013713;28;20041;-45
2021/04/08 05:26:49;;;;;;;14.48;7.93;;;;;;;;;;5013966;28;20108;-47
2021/04/08 05:29:15;;;;;;;17.80;9.40;;;;;;;;;;5013587;28;20033;-47
2021/04/08 05:31:41;;;;;;;21.08;11.15;;;;;;;;;;5012750;28;20049;-50
2021/04/08 05:34:07;;;;;;;14.60;7.80;;;;;;;;;;5013499;28;20026;-44
2021/04/08 05:36:33;;;;;;;18.40;9.25;;;;;;;;;;5013354;28;20028;-48
2021/04/08 05:38:59;;;;;;;16.58;9.20;;;;;;;;;;5013778;28;20026;-47
2021/04/08 05:41:25;;;;;;;16.20;8.93;;;;;;;;;;5013568;28;20032;-46
2021/04/08 05:43:51;;;;;;;13.18;7.88;;;;;;;;;;5013390;28;20032;-45
2021/04/08 05:46:18;;;;;;;15.10;7.72;;;;;;;;;;5013245;28;20473;-46
2021/04/08 05:48:44;;;;;;;12.95;7.18;;;;;;;;;;5013347;28;20465;-49
2021/04/08 05:51:10;;;;;;;14.30;7.43;;;;;;;;;;5013214;28;20040;-47
2021/04/08 05:53:36;;;;;;;15.77;8.10;;;;;;;;;;5014229;28;20032;-48
2021/04/08 05:56:02;;;;;;;15.00;7.90;;;;;;;;;;5013133;28;20026;-48
2021/04/08 05:58:28;;;;;;;15.50;8.48;;;;;;;;;;5014337;28;20050;-47
2021/04/08 06:00:54;;;;;;;16.08;9.73;;;;;;;;;;5013739;28;20058;-47
2021/04/08 06:03:20;;;;;;;19.00;9.35;;;;;;;;;;5010672;28;20033;-46
2021/04/08 06:05:46;;;;;;;25.85;12.15;;;;;;;;;;5013340;28;20075;-52
2021/04/08 06:08:12;;;;;;;16.45;9.48;;;;;;;;;;5012521;28;20489;-52
2021/04/08 06:10:39;;;;;;;15.13;8.52;;;;;;;;;;5009951;28;20052;-50
2021/04/08 06:13:05;;;;;;;19.30;9.85;;;;;;;;;;5005839;28;20080;-48
2021/04/08 06:15:31;;;;;;;20.70;10.98;;;;;;;;;;5003068;28;20033;-48
2021/04/08 06:17:57;;;;;;;20.25;9.48;;;;;;;;;;5025968;28;20033;-52
2021/04/08 06:20:24;;;;;;;16.10;8.55;;;;;;;;;;5011725;28;20051;-47
2021/04/08 06:22:56;;;;;;;16.33;10.02;;;;;;;;;;5008849;28;20069;-54
2021/04/08 06:25:22;;;;;;;16.73;8.90;;;;;;;;;;5001216;28;20660;-57
2021/04/08 06:27:48;;;;;;;24.08;12.75;;;;;;;;;;5000975;28;20060;-46
2021/04/08 06:30:14;;;;;;;26.02;11.65;;;;;;;;;;5010247;28;20420;-50
2021/04/08 06:32:40;;;;;;;18.55;10.02;;;;;;;;;;5013452;28;20429;-54
2021/04/08 06:35:07;;;;;;;19.77;9.85;;;;;;;;;;5012491;28;20033;-49
2021/04/08 06:37:34;;;;;;;23.48;11.60;;;;;;;;;;5012709;28;20040;-48
2021/04/08 06:40:00;;;;;;;21.65;10.88;;;;;;;;;;5012984;28;20029;-48
2021/04/08 06:42:27;;;;;;;20.60;9.90;;;;;;;;;;5013084;28;20040;-45
2021/04/08 06:44:55;;;;;;;16.27;8.80;;;;;;;;;;5012732;28;20034;-46
2021/04/08 06:47:28;;;;;;;12.90;8.52;;;;;;;;;;5031636;28;20060;-48
2021/04/08 06:49:55;;;;;;;19.17;10.83;;;;;;;;;;5015835;28;20101;-46
2021/04/08 06:52:22;;;;;;;15.50;8.23;;;;;;;;;;5010617;28;20060;-44
2021/04/08 06:54:49;;;;;;;14.40;8.88;;;;;;;;;;5012648;28;20112;-45
2021/04/08 06:57:19;;;;;;;16.08;8.75;;;;;;;;;;5012052;28;20022;-53
2021/04/08 06:59:46;;;;;;;15.35;9.10;;;;;;;;;;5002765;28;20025;-47
2021/04/08 07:02:19;;;;;;;13.65;8.70;;;;;;;;;;5007235;28;20040;-50
2021/04/08 07:04:45;;;;;;;13.70;7.60;;;;;;;;;;5008427;28;20018;-47
2021/04/08 07:07:11;;;;;;;13.55;8.05;;;;;;;;;;5002015;28;20124;-46
2021/04/08 07:09:38;;;;;;;15.98;8.30;;;;;;;;;;5008642;28;20038;-49
2021/04/08 07:12:04;;;;;;;12.35;7.55;;;;;;;;;;5006798;28;20040;-50
2021/04/08 07:14:30;;;;;;;11.93;7.70;;;;;;;;;;5012641;28;20025;-46
2021/04/08 07:16:56;;;;;;;12.25;7.15;;;;;;;;;;5009831;28;20038;-49
2021/04/08 07:19:23;;;;;;;12.02;7.50;;;;;;;;;;5001298;28;20026;-49
2021/04/08 07:21:49;;;;;;;13.40;7.50;;;;;;;;;;5006876;28;20120;-49
2021/04/08 07:24:16;;;;;;;14.50;8.02;;;;;;;;;;5022623;28;20026;-52
2021/04/08 07:27:01;;;;;;;11.18;6.20;;;;;;;;;;4992844;28;20034;-50
2021/04/08 07:29:39;;;;;;;11.82;7.38;;;;;;;;;;5010608;28;20369;-54
2021/04/08 07:32:12;;;;;;;14.88;9.48;;;;;;;;;;5012304;28;20044;-49
2021/04/08 07:34:40;;;;;;;12.07;7.90;;;;;;;;;;5011532;28;20029;-48
2021/04/08 07:37:06;;;;;;;14.35;6.90;;;;;;;;;;5004672;28;20573;-50
2021/04/08 07:39:35;;;;;;;16.98;7.97;;;;;;;;;;4992181;28;20057;-46
2021/04/08 07:42:04;;;;;;;12.52;7.07;;;;;;;;;;4992525;28;20026;-48
2021/04/08 07:44:30;;;;;;;13.13;7.65;;;;;;;;;;4992847;28;20033;-47
2021/04/08 07:46:56;;;;;;;12.82;7.45;;;;;;;;;;5001172;28;20227;-48
2021/04/08 07:49:25;;;;;;;10.35;5.78;;;;;;;;;;5008073;28;20076;-48
2021/04/08 07:51:52;;;;;;;12.65;7.63;;;;;;;;;;5004213;28;20045;-50
2021/04/08 07:54:18;;;;;;;12.35;6.30;;;;;;;;;;4998933;28;20034;-53
2021/04/08 07:56:45;;;;;;;14.00;7.45;;;;;;;;;;4996311;28;20030;-52
2021/04/08 07:59:24;;;;;;;12.93;7.07;;;;;;;;;;4995814;28;20069;-53
2021/04/08 08:01:52;;;;;;;11.30;6.43;;;;;;;;;;4995676;28;20022;-44
2021/04/08 08:04:23;;;;;;;15.18;8.05;;;;;;;;;;5008207;28;20628;-48
2021/04/08 08:06:50;;;;;;;11.65;6.47;;;;;;;;;;5014830;28;20049;-53
2021/04/08 08:09:20;;;;;;;10.05;5.60;;;;;;;;;;5012845;28;20373;-48
2021/04/08 08:11:47;;;;;;;10.57;6.15;;;;;;;;;;5015477;28;20125;-52
2021/04/08 08:14:13;;;;;;;11.40;5.70;;;;;;;;;;5012868;28;20045;-51
2021/04/08 08:16:39;;;;;;;10.48;4.90;;;;;;;;;;5015177;28;20026;-48
2021/04/08 08:19:06;;;;;;;10.27;5.43;;;;;;;;;;5015737;28;20052;-52
2021/04/08 08:21:36;;;;;;;11.00;4.93;;;;;;;;;;5015308;28;20030;-44
2021/04/08 08:24:07;;;;;;;11.90;5.60;;;;;;;;;;5015431;28;20049;-50
2021/04/08 08:26:37;;;;;;;12.88;7.20;;;;;;;;;;5015625;28;20022;-56
2021/04/08 08:29:03;;;;;;;12.88;5.75;;;;;;;;;;5015365;28;20041;-47
2021/04/08 08:31:41;;;;;;;10.25;5.75;;;;;;;;;;5015002;28;20389;-47
2021/04/08 08:34:10;;;;;;;9.68;5.72;;;;;;;;;;5014946;28;20064;-53
2021/04/08 08:36:39;;;;;;;7.60;4.70;;;;;;;;;;5015623;28;20026;-44
2021/04/08 08:39:07;;;;;;;8.80;4.90;;;;;;;;;;5015015;28;20018;-47
2021/04/08 08:41:34;;;;;;;10.93;5.53;;;;;;;;;;5015409;28;20116;-49
2021/04/08 08:44:02;;;;;;;11.23;6.30;;;;;;;;;;5014490;28;20030;-52
2021/04/08 08:46:28;;;;;;;13.15;6.43;;;;;;;;;;5014481;28;20560;-49
2021/04/08 08:48:55;;;;;;;9.07;4.43;;;;;;;;;;5014397;28;20091;-44
2021/04/08 08:51:22;;;;;;;8.05;4.68;;;;;;;;;;5014583;28;20038;-51
2021/04/08 08:53:50;;;;;;;8.68;5.57;;;;;;;;;;5014924;28;20519;-52
2021/04/08 08:56:16;;;;;;;7.13;4.55;;;;;;;;;;5014708;28;20026;-49
2021/04/08 08:58:42;;;;;;;8.68;4.80;;;;;;;;;;5014890;28;20481;-48
2021/04/08 09:01:08;;;;;;;10.68;5.32;;;;;;;;;;5011997;28;20021;-51
2021/04/08 09:03:35;;;;;;;8.63;4.43;;;;;;;;;;5013230;28;20041;-43
2021/04/08 09:06:05;;;;;;;9.63;5.53;;;;;;;;;;5011973;28;20029;-47
2021/04/08 09:08:32;;;;;;;10.85;6.60;;;;;;;;;;5014288;28;20037;-47
2021/04/08 09:10:58;;;;;;;9.65;5.20;;;;;;;;;;5011567;28;20034;-52
2021/04/08 09:13:24;;;;;;;7.72;4.45;;;;;;;;;;5015360;28;20101;-52
2021/04/08 09:15:51;;;;;;;8.57;4.82;;;;;;;;;;5015061;28;20401;-49
2021/04/08 09:18:20;;;;;;;10.32;4.80;;;;;;;;;;5014364;28;20076;-52
2021/04/08 09:20:47;;;;;;;9.48;5.75;;;;;;;;;;5014637;28;20022;-48
2021/04/08 09:23:17;;;;;;;8.57;5.00;;;;;;;;;;5012754;28;20533;-51
2021/04/08 09:25:46;;;;;;;11.02;5.22;;;;;;;;;;5013308;28;20030;-48
2021/04/08 09:28:13;;;;;;;7.65;3.78;;;;;;;;;;5006097;28;20459;-46
2021/04/08 09:33:16;;;;;;;10.18;6.60;;;;;;;;;;5014329;28;20038;-49
2021/04/08 09:35:46;;;;;;;11.95;6.63;;;;;;;;;;5014326;28;20045;-57
2021/04/08 09:38:12;;;;;;;11.10;6.68;;;;;;;;;;5014147;28;20032;-50
2021/04/08 09:40:43;;;;;;;9.27;5.15;;;;;;;;;;5013211;28;20033;-53
2021/04/08 09:43:11;;;;;;;7.05;4.93;;;;;;;;;;5014264;28;20221;-47
2021/04/08 09:45:42;;;;;;;8.93;5.10;;;;;;;;;;5014078;28;20129;-52
2021/04/08 09:48:16;;;;;;;8.13;5.93;;;;;;;;;;5013862;28;20057;-56
2021/04/08 09:50:45;;;;;;;8.52;5.35;;;;;;;;;;5013690;28;20608;-48
2021/04/08 09:53:11;;;;;;;8.88;5.07;;;;;;;;;;5013815;28;20420;-48
2021/04/08 09:55:38;;;;;;;9.48;5.60;;;;;;;;;;5013680;28;20034;-53
2021/04/08 09:58:05;;;;;;;10.38;5.43;;;;;;;;;;5012760;28;20116;-50
2021/04/08 10:00:32;;;;;;;11.05;6.30;;;;;;;;;;5031749;28;20443;-51
2021/04/08 10:02:59;;;;;;;8.18;4.40;;;;;;;;;;5015861;28;20026;-52
2021/04/08 10:05:32;;;;;;;9.02;5.13;;;;;;;;;;5014058;28;20381;-44
2021/04/08 10:07:59;;;;;;;8.32;4.43;;;;;;;;;;5013731;28;20116;-55
2021/04/08 10:10:38;;;;;;;6.65;4.18;;;;;;;;;;5013675;28;20034;-51
2021/04/08 10:13:22;;;;;;;7.95;4.57;;;;;;;;;;5013773;28;20030;-46
2021/04/08 10:15:49;;;;;;;10.43;5.70;;;;;;;;;;5013751;28;20022;-46
2021/04/08 10:18:16;;;;;;;7.72;4.90;;;;;;;;;;5013619;28;20088;-47
2021/04/08 10:20:44;;;;;;;8.13;5.18;;;;;;;;;;5013760;28;20026;-49
2021/04/08 10:23:10;;;;;;;7.28;4.70;;;;;;;;;;5013640;28;20034;-51
2021/04/08 10:25:36;;;;;;;14.75;8.35;;;;;;;;;;5013784;28;20021;-50
2021/04/08 10:28:03;;;;;;;9.18;4.85;;;;;;;;;;5013482;28;20084;-50
2021/04/08 10:30:34;;;;;;;9.23;5.57;;;;;;;;;;5013081;28;20057;-53
2021/04/08 10:33:00;;;;;;;11.85;5.30;;;;;;;;;;5013577;28;20034;-49
2021/04/08 10:35:27;;;;;;;10.48;5.45;;;;;;;;;;5013179;28;20033;-51
2021/04/08 10:38:00;;;;;;;10.93;5.53;;;;;;;;;;5013240;28;20045;-51
2021/04/08 10:40:26;;;;;;;11.10;4.63;;;;;;;;;;5013502;28;20022;-50
2021/04/08 10:42:52;;;;;;;5.15;3.40;;;;;;;;;;5013151;28;20420;-53
2021/04/08 10:45:19;;;;;;;7.70;4.50;;;;;;;;;;5013220;28;20026;-50
2021/04/08 10:47:45;;;;;;;12.35;5.57;;;;;;;;;;5012964;28;20451;-49
2021/04/08 10:50:11;;;;;;;13.77;6.65;;;;;;;;;;5013360;28;20037;-50
2021/04/08 10:52:39;;;;;;;10.85;6.07;;;;;;;;;;5013441;28;20025;-46
2021/04/08 10:55:15;;;;;;;13.93;7.35;;;;;;;;;;5012946;28;20014;-52
2021/04/08 10:57:42;;;;;;;8.48;4.07;;;;;;;;;;5012890;28;20064;-57
2021/04/08 11:00:09;;;;;;;6.65;3.47;;;;;;;;;;5012910;28;20026;-52
2021/04/08 11:02:36;;;;;;;6.10;3.40;;;;;;;;;;5013102;28;20462;-47
2021/04/08 11:05:24;;;;;;;7.75;4.00;;;;;;;;;;5012782;28;20033;-50
2021/04/08 11:07:52;;;;;;;10.35;4.85;;;;;;;;;;5012955;28;20037;-49
2021/04/08 11:10:20;;;;;;;9.13;4.80;;;;;;;;;;5012691;28;20458;-58
2021/04/08 11:12:49;;;;;;;6.80;4.03;;;;;;;;;;4994990;28;20495;-51
2021/04/08 11:15:16;;;;;;;8.68;4.55;;;;;;;;;;5012675;28;20036;-55
2021/04/08 11:17:46;;;;;;;9.73;5.60;;;;;;;;;;5012773;28;20496;-52
2021/04/08 11:20:13;;;;;;;5.18;3.00;;;;;;;;;;5012588;28;20103;-52
2021/04/08 11:22:47;;;;;;;7.03;3.25;;;;;;;;;;5012359;28;20547;-48
2021/04/08 11:25:17;;;;;;;6.47;3.55;;;;;;;;;;5012519;28;20026;-55
2021/04/08 11:27:44;;;;;;;5.63;2.97;;;;;;;;;;5011996;28;20497;-49
2021/04/08 11:30:11;;;;;;;6.68;3.40;;;;;;;;;;5012322;28;20036;-51
2021/04/08 11:32:45;;;;;;;9.82;4.88;;;;;;;;;;5012593;28;20022;-51
2021/04/08 11:35:22;;;;;;;8.95;4.82;;;;;;;;;;5012471;28;20461;-48
2021/04/08 11:37:48;;;;;;;6.97;2.70;;;;;;;;;;5012331;28;20376;-51
2021/04/08 11:40:14;;;;;;;6.78;3.47;;;;;;;;;;5012600;28;20045;-50
2021/04/08 11:42:41;;;;;;;6.55;4.25;;;;;;;;;;5012196;28;20026;-51
2021/04/08 11:45:21;;;;;;;7.28;3.60;;;;;;;;;;5012755;28;20345;-53
2021/04/08 11:48:07;;;;;;;5.82;2.70;;;;;;;;;;5012185;28;20050;-51
2021/04/08 11:50:35;;;;;;;9.98;3.70;;;;;;;;;;5012191;28;20041;-47
2021/04/08 11:53:08;;;;;;;9.25;2.90;;;;;;;;;;5012539;28;20084;-49
2021/04/08 11:55:36;;;;;;;11.93;4.15;;;;;;;;;;5012430;28;20026;-52
2021/04/08 11:58:02;;;;;;;9.73;4.13;;;;;;;;;;5012090;28;20053;-59
2021/04/08 12:00:28;;;;;;;15.50;2.25;;;;;;;;;;5012059;28;20033;-50
2021/04/08 12:02:55;;;;;;;5.80;2.15;;;;;;;;;;5012387;28;20073;-45
2021/04/08 12:05:21;;;;;;;6.97;2.25;;;;;;;;;;5012351;28;20452;-47
2021/04/08 12:07:48;;;;;;;6.68;2.70;;;;;;;;;;5012398;28;20050;-49
2021/04/08 12:10:23;;;;;;;6.53;2.20;;;;;;;;;;5012379;28;20042;-51
2021/04/08 12:12:54;;;;;;;8.88;4.10;;;;;;;;;;5012319;28;20029;-51
2021/04/08 12:15:31;;;;;;;5.45;2.85;;;;;;;;;;5011913;28;20033;-53
2021/04/08 12:17:57;;;;;;;7.35;3.25;;;;;;;;;;5011979;28;20026;-50
2021/04/08 12:20:23;;;;;;;5.88;2.70;;;;;;;;;;5012331;28;20029;-45
2021/04/08 12:22:50;;;;;;;9.63;4.00;;;;;;;;;;5012001;28;20114;-54
2021/04/08 12:25:17;;;;;;;6.47;4.00;;;;;;;;;;5012128;28;20026;-54
2021/04/08 12:27:43;;;;;;;6.90;3.15;;;;;;;;;;5012067;28;20018;-56
2021/04/08 12:30:10;;;;;;;6.95;3.70;;;;;;;;;;5011523;28;20022;-50
2021/04/08 12:32:36;;;;;;;7.05;3.55;;;;;;;;;;5011960;28;20054;-54
2021/04/08 12:35:03;;;;;;;8.95;4.47;;;;;;;;;;5012017;28;20466;-53
2021/04/08 12:37:29;;;;;;;4.50;2.40;;;;;;;;;;5011892;28;20033;-51
2021/04/08 12:39:55;;;;;;;17.80;7.68;;;;;;;;;;5013321;28;20026;-49
2021/04/08 12:42:22;;;;;;;12.45;5.63;;;;;;;;;;5015365;28;20349;-58
2021/04/08 12:44:48;;;;;;;5.00;2.38;;;;;;;;;;5015605;28;20473;-52
2021/04/08 12:47:15;;;;;;;8.40;4.32;;;;;;;;;;5015224;28;20074;-57
2021/04/08 12:49:41;;;;;;;2.97;1.60;;;;;;;;;;5015305;28;20505;-54
2021/04/08 12:52:07;;;;;;;6.47;3.90;;;;;;;;;;5015092;28;20116;-57
2021/04/08 12:54:34;;;;;;;5.45;2.50;;;;;;;;;;5015216;28;20102;-54
2021/04/08 12:57:00;;;;;;;4.00;1.98;;;;;;;;;;5015072;28;20038;-54
2021/04/08 12:59:26;;;;;;;7.10;3.95;;;;;;;;;;5014762;28;20030;-50
2021/04/08 13:01:53;;;;;;;6.72;2.85;;;;;;;;;;5015032;28;20339;-50
2021/04/08 13:04:19;;;;;;;5.63;2.90;;;;;;;;;;5015234;28;20361;-51
2021/04/08 13:06:45;;;;;;;7.93;5.15;;;;;;;;;;5015138;28;20036;-53
2021/04/08 13:09:11;;;;;;;14.45;6.85;;;;;;;;;;5015009;28;20041;-49
2021/04/08 13:11:38;;;;;;;9.23;4.72;;;;;;;;;;5014783;28;20034;-57
2021/04/08 13:14:05;;;;;;;14.90;8.43;;;;;;;;;;5014806;28;20029;-56
2021/04/08 13:16:31;;;;;;;8.52;5.40;;;;;;;;;;5014567;28;20413;-53
2021/04/08 13:18:57;;;;;;;9.52;4.90;;;;;;;;;;5014951;28;20087;-53
2021/04/08 13:21:23;;;;;;;7.95;4.25;;;;;;;;;;5014904;28;20595;-57
2021/04/08 13:23:49;;;;;;;7.10;4.28;;;;;;;;;;5014733;28;20029;-61
2021/04/08 13:26:17;;;;;;;4.60;2.50;;;;;;;;;;5014565;28;20026;-54
2021/04/08 13:28:43;;;;;;;5.15;2.28;;;;;;;;;;5014630;28;20045;-53
2021/04/08 13:31:09;;;;;;;8.00;4.13;;;;;;;;;;5014140;28;20046;-55
2021/04/08 13:33:35;;;;;;;6.82;4.07;;;;;;;;;;5014400;28;20100;-57
2021/04/08 13:36:01;;;;;;;5.22;2.45;;;;;;;;;;4996842;28;20026;-50
2021/04/08 13:38:27;;;;;;;4.53;2.22;;;;;;;;;;5014704;28;20045;-57
2021/04/08 13:40:53;;;;;;;7.07;3.33;;;;;;;;;;4996718;28;20030;-55
2021/04/08 13:43:19;;;;;;;8.18;4.90;;;;;;;;;;5014358;28;20472;-58
2021/04/08 13:45:45;;;;;;;5.03;2.65;;;;;;;;;;5014087;28;20032;-50
2021/04/08 13:48:11;;;;;;;5.15;2.55;;;;;;;;;;5013781;28;20515;-46
2021/04/08 13:50:38;;;;;;;8.27;2.22;;;;;;;;;;5013740;28;20038;-56
2021/04/08 13:53:04;;;;;;;3.70;2.13;;;;;;;;;;5013618;28;20076;-56
2021/04/08 13:55:30;;;;;;;4.72;2.47;;;;;;;;;;5013936;28;20033;-55
2021/04/08 13:57:56;;;;;;;6.07;3.13;;;;;;;;;;5013964;28;20029;-58
2021/04/08 14:00:23;;;;;;;4.95;2.35;;;;;;;;;;5013884;28;20125;-52
2021/04/08 14:02:50;;;;;;;3.58;1.65;;;;;;;;;;5014055;28;20042;-54
2021/04/08 14:05:16;;;;;;;5.85;3.08;;;;;;;;;;5014029;28;20033;-47
2021/04/08 14:07:43;;;;;;;10.18;4.97;;;;;;;;;;5014008;28;20532;-51
2021/04/08 14:10:10;;;;;;;9.38;4.93;;;;;;;;;;5013525;28;20056;-55
2021/04/08 14:12:37;;;;;;;6.22;2.67;;;;;;;;;;5013749;28;20476;-52
2021/04/08 14:15:04;;;;;;;6.30;3.08;;;;;;;;;;5013650;28;20030;-48
2021/04/08 14:17:30;;;;;;;5.80;2.58;;;;;;;;;;5013481;28;20068;-55
2021/04/08 14:19:56;;;;;;;9.38;3.85;;;;;;;;;;5013568;28;20032;-48
2021/04/08 14:22:22;;;;;;;3.47;1.60;;;;;;;;;;5013594;28;20072;-46
2021/04/08 14:24:49;;;;;;;2.33;1.48;;;;;;;;;;5013375;28;20075;-55
2021/04/08 14:27:15;;;;;;;5.95;3.15;;;;;;;;;;5013138;28;20030;-57
2021/04/08 14:29:41;;;;;;;4.35;1.70;;;;;;;;;;5013340;28;20022;-56
2021/04/08 14:32:08;;;;;;;5.90;3.08;;;;;;;;;;5013017;28;20462;-53
2021/04/08 14:34:34;;;;;;;7.97;3.85;;;;;;;;;;5013346;28;20454;-53
2021/04/08 14:37:00;;;;;;;5.05;2.20;;;;;;;;;;5013507;28;20045;-52
2021/04/08 14:39:30;;;;;;;5.07;2.22;;;;;;;;;;5013082;28;20032;-52
2021/04/08 14:41:59;;;;;;;7.22;3.70;;;;;;;;;;5013503;28;20022;-52
2021/04/08 14:44:25;;;;;;;6.15;3.42;;;;;;;;;;5013254;28;20033;-57